createdAt,value
2022-09-05T00:00:23.601Z,13.94
2022-09-05T00:02:56.310Z,13.91
2022-09-05T00:05:33.693Z,13.93
2022-09-05T00:08:14.632Z,13.92
2022-09-05T00:11:39.830Z,13.88
2022-09-05T00:14:07.682Z,13.89
2022-09-05T00:16:52.239Z,13.82
2022-09-05T00:24:22.790Z,13.83
2022-09-05T00:24:32.632Z,13.81
2022-09-05T00:26:13.309Z,13.85
2022-09-05T00:29:03.072Z,13.84
2022-09-05T00:31:53.910Z,13.87
2022-09-05T00:34:59.928Z,13.87
2022-09-05T00:37:34.120Z,13.87
2022-09-05T00:40:19.117Z,13.83
2022-09-05T00:42:53.235Z,13.77
2022-09-05T00:45:31.314Z,13.75
2022-09-05T00:48:07.755Z,13.73
2022-09-05T00:50:56.379Z,13.60
2022-09-05T00:53:29.992Z,13.58
2022-09-05T00:56:27.971Z,13.60
2022-09-05T00:59:35.172Z,13.53
2022-09-05T01:02:28.288Z,13.50
2022-09-05T01:05:06.480Z,13.41
2022-09-05T01:07:46.650Z,13.37
2022-09-05T01:10:38.849Z,13.34
2022-09-05T01:13:21.528Z,13.38
2022-09-05T01:16:00.213Z,13.38
2022-09-05T01:18:43.469Z,13.37
2022-09-05T01:21:35.367Z,13.36
2022-09-05T01:24:28.016Z,13.27
2022-09-05T01:28:25.244Z,13.25
2022-09-05T01:30:36.107Z,13.26
2022-09-05T01:33:19.841Z,13.20
2022-09-05T01:36:04.227Z,13.15
2022-09-05T01:38:36.935Z,13.13
2022-09-05T01:41:21.806Z,13.07
2022-09-05T01:44:07.195Z,12.97
2022-09-05T01:46:35.190Z,12.93
2022-09-05T01:49:14.040Z,12.81
2022-09-05T01:52:04.901Z,12.69
2022-09-05T01:54:47.556Z,12.65
2022-09-05T01:57:35.837Z,12.67
2022-09-05T02:00:12.609Z,12.67
2022-09-05T02:03:07.032Z,12.63
2022-09-05T02:05:51.860Z,12.67
2022-09-05T02:08:44.554Z,12.68
2022-09-05T02:11:12.746Z,12.64
2022-09-05T02:13:46.126Z,12.61
2022-09-05T02:16:23.059Z,12.60
2022-09-05T02:19:29.416Z,12.65
2022-09-05T02:22:12.067Z,12.64
2022-09-05T02:24:45.627Z,12.62
2022-09-05T02:28:05.227Z,12.60
2022-09-05T02:30:24.597Z,12.54
2022-09-05T02:32:55.259Z,12.48
2022-09-05T02:35:40.542Z,12.41
2022-09-05T02:40:53.497Z,12.39
2022-09-05T02:45:10.682Z,12.33
2022-09-05T02:45:18.521Z,12.30
2022-09-05T02:47:16.387Z,12.17
2022-09-05T02:52:46.254Z,12.07
2022-09-05T02:57:26.759Z,12.05
2022-09-05T02:57:34.569Z,12.07
2022-09-05T02:59:11.302Z,12.08
2022-09-05T03:01:52.484Z,12.06
2022-09-05T03:04:29.771Z,12.09
2022-09-05T03:07:14.639Z,12.08
2022-09-05T03:09:47.098Z,12.04
2022-09-05T03:12:50.410Z,12.02
2022-09-05T03:15:38.323Z,11.98
2022-09-05T03:18:28.085Z,12.00
2022-09-05T03:21:29.930Z,12.00
2022-09-05T03:24:02.459Z,11.95
2022-09-05T03:26:38.110Z,12.00
2022-09-05T03:29:45.919Z,11.98
2022-09-05T03:32:33.777Z,11.95
2022-09-05T03:35:32.383Z,11.91
2022-09-05T03:38:20.619Z,11.88
2022-09-05T03:41:02.766Z,11.90
2022-09-05T03:44:06.819Z,11.87
2022-09-05T03:47:12.813Z,11.81
2022-09-05T03:54:51.144Z,11.79
2022-09-05T03:57:14.440Z,11.71
2022-09-05T03:57:14.577Z,11.71
2022-09-05T03:59:28.817Z,11.67
2022-09-05T04:04:54.896Z,11.64
2022-09-05T04:08:18.262Z,11.60
2022-09-05T04:08:34.021Z,11.61
2022-09-05T04:11:02.048Z,11.56
2022-09-05T04:13:51.414Z,11.51
2022-09-05T04:16:24.110Z,11.37
2022-09-05T04:18:56.521Z,11.34
2022-09-05T04:21:35.009Z,11.35
2022-09-05T04:24:39.564Z,11.33
2022-09-05T04:27:27.754Z,11.28
2022-09-05T04:29:58.530Z,11.36
2022-09-05T04:32:38.047Z,11.38
2022-09-05T04:35:19.878Z,11.43
2022-09-05T04:38:13.270Z,11.55
2022-09-05T04:40:48.734Z,11.64
2022-09-05T04:43:18.084Z,11.77
2022-09-05T04:46:15.717Z,11.84
2022-09-05T04:48:59.713Z,11.90
2022-09-05T04:52:00.875Z,11.96
2022-09-05T04:54:45.700Z,12.04
2022-09-05T04:57:27.911Z,12.07
2022-09-05T05:05:34.410Z,12.11
2022-09-05T05:06:09.585Z,12.17
2022-09-05T05:06:14.078Z,12.12
2022-09-05T05:08:42.728Z,12.24
2022-09-05T05:17:59.309Z,12.30
2022-09-05T05:18:10.551Z,12.47
2022-09-05T05:18:14.227Z,12.38
2022-09-05T05:20:42.454Z,12.57
2022-09-05T05:23:15.322Z,12.68
2022-09-05T05:25:55.043Z,12.75
2022-09-05T05:28:43.367Z,12.84
2022-09-05T05:31:16.873Z,12.95
2022-09-05T05:33:49.025Z,13.01
2022-09-05T05:36:38.968Z,13.11
2022-09-05T05:39:14.219Z,13.19
2022-09-05T05:41:49.817Z,13.29
2022-09-05T05:44:19.234Z,13.38
2022-09-05T05:46:53.925Z,13.47
2022-09-05T05:49:29.047Z,13.58
2022-09-05T05:52:14.105Z,13.69
2022-09-05T05:55:45.223Z,13.82
2022-09-05T05:58:00.390Z,13.96
2022-09-05T06:00:57.816Z,14.13
2022-09-05T06:03:46.124Z,14.30
2022-09-05T06:06:17.307Z,14.46
2022-09-05T06:11:30.692Z,14.65
2022-09-05T06:14:55.119Z,14.85
2022-09-05T06:15:26.649Z,15.02
2022-09-05T06:17:53.830Z,15.16
2022-09-05T06:22:10.652Z,15.32
2022-09-05T06:24:16.837Z,15.54
2022-09-05T06:27:12.959Z,15.75
2022-09-05T06:30:08.926Z,15.96
2022-09-05T06:33:09.773Z,16.15
2022-09-05T06:35:39.234Z,16.25
2022-09-05T06:38:14.184Z,16.36
2022-09-05T06:41:01.508Z,16.51
2022-09-05T06:44:01.751Z,16.74
2022-09-05T06:46:55.119Z,16.90
2022-09-05T06:49:51.623Z,17.08
2022-09-05T06:52:55.745Z,17.20
2022-09-05T06:55:40.270Z,17.34
2022-09-05T06:58:27.898Z,17.46
2022-09-05T07:01:02.407Z,17.58
2022-09-05T07:04:33.346Z,17.72
2022-09-05T07:07:23.093Z,17.86
2022-09-05T07:10:37.864Z,18.05
2022-09-05T07:13:28.027Z,18.22
2022-09-05T07:16:16.403Z,18.32
2022-09-05T07:19:12.264Z,18.45
2022-09-05T07:21:55.249Z,18.52
2022-09-05T07:24:41.802Z,18.66
2022-09-05T07:27:41.886Z,18.81
2022-09-05T07:30:22.917Z,18.95
2022-09-05T07:32:53.051Z,19.03
2022-09-05T07:35:29.315Z,19.14
2022-09-05T07:38:22.662Z,19.24
2022-09-05T07:41:18.382Z,19.41
2022-09-05T07:43:48.860Z,19.49
2022-09-05T07:46:26.383Z,19.62
2022-09-05T07:49:07.758Z,19.80
2022-09-05T07:55:10.986Z,19.91
2022-09-05T07:57:01.150Z,20.03
2022-09-05T07:57:31.674Z,20.06
2022-09-05T08:00:25.651Z,20.09
2022-09-05T08:02:55.095Z,20.08
2022-09-05T08:05:34.247Z,20.11
2022-09-05T08:08:08.339Z,20.23
2022-09-05T08:11:22.511Z,20.38
2022-09-05T08:13:46.455Z,20.50
2022-09-05T08:16:24.158Z,20.60
2022-09-05T08:18:53.138Z,20.68
2022-09-05T08:21:39.775Z,20.73
2022-09-05T08:24:13.780Z,20.81
2022-09-05T08:26:52.622Z,20.90
2022-09-05T08:29:39.701Z,21.01
2022-09-05T08:32:10.651Z,21.24
2022-09-05T08:34:56.658Z,21.32
2022-09-05T08:37:26.109Z,21.39
2022-09-05T08:40:10.859Z,21.51
2022-09-05T08:44:24.437Z,21.73
2022-09-05T08:46:40.700Z,21.93
2022-09-05T08:49:11.321Z,22.15
2022-09-05T08:51:55.401Z,22.31
2022-09-05T08:54:32.068Z,22.46
2022-09-05T08:57:07.262Z,22.55
2022-09-05T08:59:36.655Z,22.60
2022-09-05T09:02:52.028Z,22.67
2022-09-05T09:06:12.253Z,22.73
2022-09-05T09:09:16.586Z,22.87
2022-09-05T09:12:03.330Z,23.05
2022-09-05T09:15:03.347Z,23.10
2022-09-05T09:17:44.550Z,23.25
2022-09-05T09:20:19.852Z,23.37
2022-09-05T09:22:58.694Z,23.49
2022-09-05T09:25:49.267Z,23.67
2022-09-05T09:28:47.986Z,23.78
2022-09-05T09:31:31.371Z,23.89
2022-09-05T09:34:06.977Z,24.03
2022-09-05T09:36:55.369Z,24.23
2022-09-05T09:39:39.301Z,24.30
2022-09-05T09:42:33.191Z,24.33
2022-09-05T09:45:27.874Z,24.49
2022-09-05T09:48:32.198Z,24.39
2022-09-05T09:51:05.124Z,24.54
2022-09-05T09:53:50.280Z,24.73
2022-09-05T09:56:48.002Z,24.78
2022-09-05T09:59:33.233Z,24.72
2022-09-05T10:04:31.282Z,24.87
2022-09-05T10:10:45.620Z,25.01
2022-09-05T10:10:46.170Z,25.32
2022-09-05T10:12:23.162Z,25.55
2022-09-05T10:15:30.516Z,25.81
2022-09-05T10:18:21.885Z,26.07
2022-09-05T10:21:15.659Z,26.37
2022-09-05T10:24:04.656Z,26.40
2022-09-05T10:26:37.086Z,26.40
2022-09-05T10:29:35.000Z,26.48
2022-09-05T10:35:07.966Z,26.50
2022-09-05T10:35:22.284Z,26.39
2022-09-05T10:38:10.743Z,26.57
2022-09-05T10:40:51.428Z,26.72
2022-09-05T10:43:30.116Z,26.83
2022-09-05T10:45:56.745Z,26.93
2022-09-05T10:48:52.915Z,27.06
2022-09-05T10:51:27.919Z,27.27
2022-09-05T10:53:58.699Z,27.30
2022-09-05T10:56:32.031Z,27.32
2022-09-05T10:59:38.737Z,27.46
2022-09-05T11:02:29.728Z,27.57
2022-09-05T11:04:50.579Z,27.85
2022-09-05T11:07:35.592Z,28.12
2022-09-05T11:10:10.176Z,28.50
2022-09-05T11:13:03.582Z,27.98
2022-09-05T11:15:33.969Z,27.74
2022-09-05T11:18:09.819Z,27.80
2022-09-05T11:20:54.647Z,28.18
2022-09-05T11:23:46.213Z,28.35
2022-09-05T11:26:54.526Z,28.55
2022-09-05T11:29:41.392Z,28.85
2022-09-05T11:35:46.709Z,28.98
2022-09-05T11:39:53.714Z,29.08
2022-09-05T11:39:59.041Z,29.07
2022-09-05T11:41:31.234Z,29.25
2022-09-05T11:44:26.131Z,29.48
2022-09-05T11:47:29.807Z,29.93
2022-09-05T11:50:27.448Z,30.11
2022-09-05T11:53:05.248Z,30.63
2022-09-05T11:55:58.633Z,30.68
2022-09-05T11:58:45.033Z,30.68
2022-09-05T12:01:41.544Z,30.92
2022-09-05T12:04:20.450Z,30.89
2022-09-05T12:07:27.065Z,31.45
2022-09-05T12:09:56.759Z,31.61
2022-09-05T12:12:43.447Z,32.02
2022-09-05T12:16:07.324Z,32.31
2022-09-05T12:19:18.763Z,32.29
2022-09-05T12:22:09.023Z,32.57
2022-09-05T12:26:14.118Z,33.06
2022-09-05T12:29:26.671Z,33.72
2022-09-05T12:32:50.618Z,34.20
2022-09-05T12:36:04.141Z,34.58
2022-09-05T12:40:43.240Z,35.03
2022-09-05T12:41:37.998Z,35.08
2022-09-05T12:44:06.050Z,35.41
2022-09-05T12:46:02.282Z,35.63
2022-09-05T12:48:39.253Z,35.85
2022-09-05T12:51:45.457Z,36.06
2022-09-05T12:54:24.556Z,36.05
2022-09-05T13:00:54.122Z,35.67
2022-09-05T13:03:01.183Z,36.59
2022-09-05T13:03:05.725Z,37.71
2022-09-05T13:05:46.491Z,38.35
2022-09-05T13:08:21.223Z,39.21
2022-09-05T13:14:47.446Z,38.46
2022-09-05T13:14:55.454Z,39.24
2022-09-05T13:16:43.913Z,39.59
2022-09-05T13:19:43.462Z,39.50
2022-09-05T13:22:14.706Z,37.86
2022-09-05T13:24:45.647Z,38.59
2022-09-05T13:27:16.114Z,37.45
2022-09-05T13:31:59.644Z,37.75
2022-09-05T13:37:59.938Z,36.53
2022-09-05T13:38:09.896Z,38.33
2022-09-05T13:39:02.078Z,38.58
2022-09-05T13:41:41.991Z,37.91
2022-09-05T13:44:27.488Z,38.04
2022-09-05T13:47:02.019Z,38.89
2022-09-05T13:49:44.801Z,38.53
2022-09-05T13:52:34.506Z,39.96
2022-09-05T13:55:25.163Z,40.72
2022-09-05T13:58:05.120Z,41.14
2022-09-05T14:00:40.499Z,42.20
2022-09-05T14:05:56.484Z,42.68
2022-09-05T14:11:55.835Z,42.56
2022-09-05T14:20:28.248Z,41.65
2022-09-05T14:23:24.293Z,41.19
2022-09-05T14:26:00.136Z,38.28
2022-09-05T14:28:46.622Z,37.89
2022-09-05T14:37:37.007Z,37.13
2022-09-05T14:37:42.860Z,38.04
2022-09-05T14:37:49.008Z,38.59
2022-09-05T14:40:35.302Z,39.61
2022-09-05T14:43:26.884Z,39.43
2022-09-05T14:46:07.318Z,39.47
2022-09-05T14:49:05.552Z,39.51
2022-09-05T14:51:46.518Z,39.51
2022-09-05T15:02:38.613Z,38.89
2022-09-05T15:02:49.129Z,38.84
2022-09-05T15:03:04.571Z,38.58
2022-09-05T15:05:32.014Z,38.60
2022-09-05T15:08:26.932Z,39.12
2022-09-05T15:12:15.727Z,39.20
2022-09-05T15:14:11.160Z,39.05
2022-09-05T15:16:43.589Z,38.82
2022-09-05T15:19:11.119Z,39.32
2022-09-05T15:21:41.334Z,39.36
2022-09-05T15:24:15.758Z,40.06
2022-09-05T15:26:53.544Z,40.22
2022-09-05T15:29:26.726Z,40.10
2022-09-05T15:32:11.886Z,39.86
2022-09-05T15:34:39.080Z,40.51
2022-09-05T15:37:40.392Z,40.88
2022-09-05T15:40:22.590Z,40.92
2022-09-05T15:42:53.435Z,41.39
2022-09-05T15:45:46.931Z,41.59
2022-09-05T15:48:26.278Z,41.54
2022-09-05T15:51:07.351Z,41.33
2022-09-05T15:53:37.648Z,40.25
2022-09-05T15:56:10.099Z,40.04
2022-09-05T15:58:53.490Z,40.16
2022-09-05T16:01:59.854Z,40.09
2022-09-05T16:10:31.286Z,40.04
2022-09-05T16:10:42.877Z,38.31
2022-09-05T16:10:45.440Z,38.81
2022-09-05T16:13:12.939Z,38.47
2022-09-05T16:20:27.806Z,38.22
2022-09-05T16:23:25.131Z,37.49
2022-09-05T16:23:29.518Z,36.30
2022-09-05T16:24:45.121Z,36.52
2022-09-05T16:27:17.989Z,36.17
2022-09-05T16:29:50.556Z,35.73
2022-09-05T16:32:28.624Z,35.03
2022-09-05T16:35:00.364Z,35.17
2022-09-05T16:37:35.771Z,34.90
2022-09-05T16:40:18.529Z,33.77
2022-09-05T16:42:49.441Z,33.05
2022-09-05T16:45:29.588Z,32.75
2022-09-05T16:48:34.370Z,31.91
2022-09-05T16:51:16.871Z,31.46
2022-09-05T16:54:10.380Z,30.75
2022-09-05T16:57:24.245Z,30.17
2022-09-05T16:59:51.301Z,29.98
2022-09-05T17:02:38.721Z,29.74
2022-09-05T17:05:39.279Z,29.39
2022-09-05T17:08:35.584Z,28.78
2022-09-05T17:11:12.273Z,28.41
2022-09-05T17:13:54.444Z,28.26
2022-09-05T17:16:56.424Z,27.99
2022-09-05T17:19:33.749Z,27.56
2022-09-05T17:23:39.148Z,27.36
2022-09-05T17:29:30.887Z,26.80
2022-09-05T17:29:31.063Z,26.89
2022-09-05T17:31:55.903Z,26.66
2022-09-05T17:34:30.025Z,26.44
2022-09-05T17:37:22.543Z,26.12
2022-09-05T17:40:10.126Z,25.72
2022-09-05T17:42:36.858Z,25.70
2022-09-05T17:45:26.454Z,25.58
2022-09-05T17:47:57.609Z,25.30
2022-09-05T17:50:28.205Z,24.89
2022-09-05T17:53:26.062Z,24.58
2022-09-05T17:56:09.399Z,24.36
2022-09-05T17:58:48.991Z,24.52
2022-09-05T18:01:26.890Z,24.09
2022-09-05T18:04:18.011Z,23.99
2022-09-05T18:06:49.015Z,23.96
2022-09-05T18:09:42.870Z,23.79
2022-09-05T18:13:31.596Z,23.68
2022-09-05T18:15:35.631Z,23.47
2022-09-05T18:18:43.658Z,23.36
2022-09-05T18:24:12.822Z,22.88
2022-09-05T18:26:48.847Z,22.80
2022-09-05T18:29:58.850Z,22.61
2022-09-05T18:33:55.297Z,22.43
2022-09-05T18:36:02.255Z,22.46
2022-09-05T18:38:50.244Z,22.05
2022-09-05T18:41:24.749Z,22.09
2022-09-05T18:43:54.679Z,22.03
2022-09-05T18:46:49.800Z,21.91
2022-09-05T18:50:23.817Z,21.83
2022-09-05T18:52:24.236Z,21.70
2022-09-05T18:56:11.664Z,21.49
2022-09-05T18:57:48.651Z,21.24
2022-09-05T19:00:24.783Z,20.96
2022-09-05T19:03:07.709Z,20.88
2022-09-05T19:06:35.589Z,20.92
2022-09-05T19:08:56.765Z,20.91
2022-09-05T19:11:53.347Z,20.78
2022-09-05T19:14:36.395Z,20.87
2022-09-05T19:17:30.137Z,20.66
2022-09-05T19:20:32.486Z,20.59
2022-09-05T19:23:10.969Z,20.48
2022-09-05T19:25:41.331Z,20.53
2022-09-05T19:35:14.092Z,20.48
2022-09-05T19:36:53.410Z,20.52
2022-09-05T19:37:09.791Z,20.35
2022-09-05T19:37:42.878Z,20.23
2022-09-05T19:47:25.412Z,19.92
2022-09-05T19:47:43.623Z,19.85
2022-09-05T19:47:43.634Z,19.89
2022-09-05T19:49:07.463Z,19.82
2022-09-05T19:51:34.503Z,19.76
2022-09-05T19:54:04.610Z,19.71
2022-09-05T19:56:44.370Z,19.71
2022-09-05T19:59:25.207Z,19.67
2022-09-05T20:01:53.106Z,19.57
2022-09-05T20:04:21.077Z,19.54
2022-09-05T20:06:49.654Z,19.61
2022-09-05T20:09:19.018Z,19.67
2022-09-05T20:11:50.791Z,19.56
2022-09-05T20:14:18.673Z,19.58
2022-09-05T20:16:48.135Z,19.59
2022-09-05T20:19:34.404Z,19.59
2022-09-05T20:22:17.409Z,19.58
2022-09-05T20:24:52.536Z,19.61
2022-09-05T20:27:19.432Z,19.55
2022-09-05T20:29:58.050Z,19.57
2022-09-05T20:32:39.441Z,19.45
2022-09-05T20:37:24.065Z,19.42
2022-09-05T20:43:20.297Z,19.35
2022-09-05T20:43:31.288Z,19.25
2022-09-05T20:43:53.116Z,19.24
2022-09-05T20:50:26.083Z,19.18
2022-09-05T20:54:08.675Z,19.17
2022-09-05T20:54:27.128Z,19.12
2022-09-05T20:55:40.196Z,19.08
2022-09-05T20:58:11.490Z,19.01
2022-09-05T21:01:15.708Z,18.89
2022-09-05T21:03:36.604Z,18.91
2022-09-05T21:06:23.030Z,18.71
2022-09-05T21:08:55.823Z,18.52
2022-09-05T21:11:32.597Z,18.51
2022-09-05T21:14:03.419Z,18.55
2022-09-05T21:16:44.884Z,18.46
2022-09-05T21:19:29.447Z,18.25
2022-09-05T21:22:06.384Z,18.18
2022-09-05T21:24:33.441Z,18.16
2022-09-05T21:27:21.827Z,18.14
2022-09-05T21:29:53.025Z,18.17
2022-09-05T21:32:27.975Z,18.01
2022-09-05T21:35:09.250Z,17.91
2022-09-05T21:37:53.587Z,17.85
2022-09-05T21:40:21.301Z,17.77
2022-09-05T21:46:31.672Z,17.76
2022-09-05T21:47:44.916Z,17.74
2022-09-05T21:48:24.133Z,17.73
2022-09-05T21:50:57.262Z,17.73
2022-09-05T21:57:16.884Z,17.72
2022-09-05T21:59:21.755Z,17.70
2022-09-05T22:02:08.387Z,17.72
2022-09-05T22:04:35.622Z,17.73
2022-09-05T22:07:08.090Z,17.69
2022-09-05T22:09:34.611Z,17.68
2022-09-05T22:12:09.692Z,17.62
2022-09-05T22:14:47.784Z,17.58
2022-09-05T22:17:14.443Z,17.53
2022-09-05T22:19:41.254Z,17.50
2022-09-05T22:22:16.941Z,17.45
2022-09-05T22:24:55.383Z,17.47
2022-09-05T22:27:25.936Z,17.52
2022-09-05T22:29:52.905Z,17.53
2022-09-05T22:32:34.769Z,17.54
2022-09-05T22:35:27.283Z,17.52
2022-09-05T22:38:00.257Z,17.55
2022-09-05T22:40:29.045Z,17.49
2022-09-05T22:43:00.845Z,17.44
2022-09-05T22:45:28.798Z,17.48
2022-09-05T22:47:55.506Z,17.53
2022-09-05T22:50:23.015Z,17.60
2022-09-05T22:52:50.119Z,17.59
2022-09-05T22:55:17.438Z,17.53
2022-09-05T22:57:44.015Z,17.54
2022-09-05T23:00:11.207Z,17.52
2022-09-05T23:02:37.763Z,17.50
2022-09-05T23:05:05.618Z,17.53
2022-09-05T23:07:32.503Z,17.58
2022-09-05T23:09:59.476Z,17.59
2022-09-05T23:12:26.153Z,17.60
2022-09-05T23:14:52.811Z,17.65
2022-09-05T23:17:19.320Z,17.66
2022-09-05T23:19:45.850Z,17.64
2022-09-05T23:22:12.392Z,17.66
2022-09-05T23:24:38.911Z,17.71
2022-09-05T23:27:05.475Z,17.71
2022-09-05T23:29:32.005Z,17.72
2022-09-05T23:31:58.528Z,17.72
2022-09-05T23:34:25.632Z,17.72
2022-09-05T23:36:52.182Z,17.69
2022-09-05T23:39:18.734Z,17.69
2022-09-05T23:41:45.271Z,17.67
2022-09-05T23:44:12.031Z,17.66
2022-09-05T23:46:40.421Z,17.56
2022-09-05T23:49:07.166Z,17.55
2022-09-05T23:51:33.784Z,17.56
2022-09-05T23:54:00.338Z,17.53
2022-09-05T23:56:26.882Z,17.47
2022-09-05T23:58:53.431Z,17.43
